sensor_id;sensor_type;location;lat;lon;timestamp;P1;durP1;ratioP1;P2;durP2;ratioP2
42110;SDS011;27766;52.174;5.456;2023-07-13T00:02:18;8.77;;;1.92;;
42110;SDS011;27766;52.174;5.456;2023-07-13T00:04:46;6.65;;;1.70;;
42110;SDS011;27766;52.174;5.456;2023-07-13T00:07:13;9.23;;;1.70;;
42110;SDS011;27766;52.174;5.456;2023-07-13T00:09:41;6.28;;;1.92;;
42110;SDS011;27766;52.174;5.456;2023-07-13T00:12:27;7.03;;;1.83;;
42110;SDS011;27766;52.174;5.456;2023-07-13T00:15:01;10.30;;;2.70;;
42110;SDS011;27766;52.174;5.456;2023-07-13T00:17:32;5.95;;;2.28;;
42110;SDS011;27766;52.174;5.456;2023-07-13T00:20:00;4.82;;;1.77;;
42110;SDS011;27766;52.174;5.456;2023-07-13T00:22:27;10.23;;;2.42;;
42110;SDS011;27766;52.174;5.456;2023-07-13T00:24:54;10.82;;;1.70;;
42110;SDS011;27766;52.174;5.456;2023-07-13T00:27:25;5.93;;;1.73;;
42110;SDS011;27766;52.174;5.456;2023-07-13T00:29:53;5.53;;;1.60;;
42110;SDS011;27766;52.174;5.456;2023-07-13T00:32:20;4.13;;;1.75;;
42110;SDS011;27766;52.174;5.456;2023-07-13T00:34:48;9.20;;;1.75;;
42110;SDS011;27766;52.174;5.456;2023-07-13T00:37:15;5.60;;;1.80;;
42110;SDS011;27766;52.174;5.456;2023-07-13T00:39:42;6.45;;;1.40;;
42110;SDS011;27766;52.174;5.456;2023-07-13T00:42:10;3.22;;;1.70;;
42110;SDS011;27766;52.174;5.456;2023-07-13T00:44:38;9.68;;;2.83;;
42110;SDS011;27766;52.174;5.456;2023-07-13T00:47:06;9.57;;;2.72;;
42110;SDS011;27766;52.174;5.456;2023-07-13T00:49:35;4.03;;;1.83;;
42110;SDS011;27766;52.174;5.456;2023-07-13T00:52:05;8.88;;;2.03;;
42110;SDS011;27766;52.174;5.456;2023-07-13T00:54:35;6.75;;;1.85;;
42110;SDS011;27766;52.174;5.456;2023-07-13T00:57:07;2.65;;;1.50;;
42110;SDS011;27766;52.174;5.456;2023-07-13T00:59:38;7.13;;;1.90;;
42110;SDS011;27766;52.174;5.456;2023-07-13T01:02:08;4.75;;;1.40;;
42110;SDS011;27766;52.174;5.456;2023-07-13T01:04:37;5.72;;;1.75;;
42110;SDS011;27766;52.174;5.456;2023-07-13T01:07:06;5.18;;;1.67;;
42110;SDS011;27766;52.174;5.456;2023-07-13T01:09:33;3.50;;;1.90;;
42110;SDS011;27766;52.174;5.456;2023-07-13T01:12:01;6.07;;;1.48;;
42110;SDS011;27766;52.174;5.456;2023-07-13T01:14:29;7.57;;;2.25;;
42110;SDS011;27766;52.174;5.456;2023-07-13T01:16:56;2.88;;;1.48;;
42110;SDS011;27766;52.174;5.456;2023-07-13T01:22:07;5.00;;;1.60;;
42110;SDS011;27766;52.174;5.456;2023-07-13T01:24:39;5.10;;;1.70;;
42110;SDS011;27766;52.174;5.456;2023-07-13T01:27:08;5.53;;;1.98;;
42110;SDS011;27766;52.174;5.456;2023-07-13T01:29:38;5.18;;;1.70;;
42110;SDS011;27766;52.174;5.456;2023-07-13T01:32:09;5.53;;;1.70;;
42110;SDS011;27766;52.174;5.456;2023-07-13T01:34:37;11.15;;;1.95;;
42110;SDS011;27766;52.174;5.456;2023-07-13T01:37:05;7.30;;;1.70;;
42110;SDS011;27766;52.174;5.456;2023-07-13T01:39:32;7.10;;;1.80;;
42110;SDS011;27766;52.174;5.456;2023-07-13T01:42:00;5.28;;;1.90;;
42110;SDS011;27766;52.174;5.456;2023-07-13T01:44:27;5.18;;;1.67;;
42110;SDS011;27766;52.174;5.456;2023-07-13T01:46:54;6.45;;;1.80;;
42110;SDS011;27766;52.174;5.456;2023-07-13T01:49:22;4.47;;;1.83;;
42110;SDS011;27766;52.174;5.456;2023-07-13T01:51:49;6.38;;;1.92;;
42110;SDS011;27766;52.174;5.456;2023-07-13T01:54:17;3.58;;;1.73;;
42110;SDS011;27766;52.174;5.456;2023-07-13T01:56:44;5.57;;;1.83;;
42110;SDS011;27766;52.174;5.456;2023-07-13T01:59:12;9.32;;;1.60;;
42110;SDS011;27766;52.174;5.456;2023-07-13T02:01:39;5.03;;;2.05;;
42110;SDS011;27766;52.174;5.456;2023-07-13T02:04:06;4.15;;;2.10;;
42110;SDS011;27766;52.174;5.456;2023-07-13T02:06:34;6.60;;;1.70;;
42110;SDS011;27766;52.174;5.456;2023-07-13T02:09:01;5.10;;;2.17;;
42110;SDS011;27766;52.174;5.456;2023-07-13T02:11:28;6.47;;;2.10;;
42110;SDS011;27766;52.174;5.456;2023-07-13T02:14:00;4.07;;;1.88;;
42110;SDS011;27766;52.174;5.456;2023-07-13T02:16:31;6.95;;;2.15;;
42110;SDS011;27766;52.174;5.456;2023-07-13T02:18:59;7.93;;;2.53;;
42110;SDS011;27766;52.174;5.456;2023-07-13T02:21:27;9.57;;;2.17;;
42110;SDS011;27766;52.174;5.456;2023-07-13T02:23:55;7.15;;;2.50;;
42110;SDS011;27766;52.174;5.456;2023-07-13T02:26:22;7.80;;;2.33;;
42110;SDS011;27766;52.174;5.456;2023-07-13T02:28:49;8.93;;;1.73;;
42110;SDS011;27766;52.174;5.456;2023-07-13T02:31:17;4.75;;;1.90;;
42110;SDS011;27766;52.174;5.456;2023-07-13T02:33:44;3.03;;;1.77;;
42110;SDS011;27766;52.174;5.456;2023-07-13T02:36:12;8.23;;;2.40;;
42110;SDS011;27766;52.174;5.456;2023-07-13T02:38:43;8.50;;;2.30;;
42110;SDS011;27766;52.174;5.456;2023-07-13T02:41:10;7.47;;;2.50;;
42110;SDS011;27766;52.174;5.456;2023-07-13T02:43:37;6.45;;;2.08;;
42110;SDS011;27766;52.174;5.456;2023-07-13T02:46:05;2.90;;;1.83;;
42110;SDS011;27766;52.174;5.456;2023-07-13T02:48:35;7.20;;;2.38;;
42110;SDS011;27766;52.174;5.456;2023-07-13T02:51:04;6.45;;;2.72;;
42110;SDS011;27766;52.174;5.456;2023-07-13T02:53:31;6.18;;;2.20;;
42110;SDS011;27766;52.174;5.456;2023-07-13T02:55:59;11.35;;;2.85;;
42110;SDS011;27766;52.174;5.456;2023-07-13T02:58:26;5.60;;;2.47;;
42110;SDS011;27766;52.174;5.456;2023-07-13T03:00:55;8.07;;;2.83;;
42110;SDS011;27766;52.174;5.456;2023-07-13T03:03:23;11.32;;;2.63;;
42110;SDS011;27766;52.174;5.456;2023-07-13T03:05:57;7.00;;;2.50;;
42110;SDS011;27766;52.174;5.456;2023-07-13T03:08:26;8.52;;;2.47;;
42110;SDS011;27766;52.174;5.456;2023-07-13T03:11:07;7.53;;;2.88;;
42110;SDS011;27766;52.174;5.456;2023-07-13T03:13:38;5.15;;;2.15;;
42110;SDS011;27766;52.174;5.456;2023-07-13T03:16:06;7.88;;;3.25;;
42110;SDS011;27766;52.174;5.456;2023-07-13T03:18:35;5.55;;;2.40;;
42110;SDS011;27766;52.174;5.456;2023-07-13T03:21:03;7.65;;;2.38;;
42110;SDS011;27766;52.174;5.456;2023-07-13T03:23:31;5.30;;;2.40;;
42110;SDS011;27766;52.174;5.456;2023-07-13T03:26:18;3.90;;;2.58;;
42110;SDS011;27766;52.174;5.456;2023-07-13T03:28:46;4.55;;;2.35;;
42110;SDS011;27766;52.174;5.456;2023-07-13T03:31:16;8.27;;;2.85;;
42110;SDS011;27766;52.174;5.456;2023-07-13T03:33:45;7.75;;;2.70;;
42110;SDS011;27766;52.174;5.456;2023-07-13T03:36:15;6.32;;;3.42;;
42110;SDS011;27766;52.174;5.456;2023-07-13T03:41:19;8.80;;;3.00;;
42110;SDS011;27766;52.174;5.456;2023-07-13T03:43:46;8.77;;;3.00;;
42110;SDS011;27766;52.174;5.456;2023-07-13T03:46:17;5.95;;;2.53;;
42110;SDS011;27766;52.174;5.456;2023-07-13T03:48:46;7.22;;;2.85;;
42110;SDS011;27766;52.174;5.456;2023-07-13T03:51:15;6.25;;;3.13;;
42110;SDS011;27766;52.174;5.456;2023-07-13T03:53:44;8.45;;;3.10;;
42110;SDS011;27766;52.174;5.456;2023-07-13T03:56:13;9.20;;;3.17;;
42110;SDS011;27766;52.174;5.456;2023-07-13T03:58:42;6.63;;;2.92;;
42110;SDS011;27766;52.174;5.456;2023-07-13T04:01:11;9.02;;;3.08;;
42110;SDS011;27766;52.174;5.456;2023-07-13T04:03:39;7.55;;;3.17;;
42110;SDS011;27766;52.174;5.456;2023-07-13T04:06:08;7.80;;;3.28;;
42110;SDS011;27766;52.174;5.456;2023-07-13T04:08:42;11.25;;;3.28;;
42110;SDS011;27766;52.174;5.456;2023-07-13T04:11:09;6.18;;;3.20;;
42110;SDS011;27766;52.174;5.456;2023-07-13T04:13:36;7.20;;;3.58;;
42110;SDS011;27766;52.174;5.456;2023-07-13T04:16:04;7.53;;;3.17;;
42110;SDS011;27766;52.174;5.456;2023-07-13T04:18:31;11.95;;;3.95;;
42110;SDS011;27766;52.174;5.456;2023-07-13T04:20:59;8.60;;;3.78;;
42110;SDS011;27766;52.174;5.456;2023-07-13T04:23:26;11.95;;;3.83;;
42110;SDS011;27766;52.174;5.456;2023-07-13T04:25:54;10.68;;;3.83;;
42110;SDS011;27766;52.174;5.456;2023-07-13T04:28:23;8.15;;;3.13;;
42110;SDS011;27766;52.174;5.456;2023-07-13T04:30:52;8.40;;;3.03;;
42110;SDS011;27766;52.174;5.456;2023-07-13T04:33:19;9.27;;;3.67;;
42110;SDS011;27766;52.174;5.456;2023-07-13T04:35:50;9.82;;;3.80;;
42110;SDS011;27766;52.174;5.456;2023-07-13T04:38:24;14.57;;;3.90;;
42110;SDS011;27766;52.174;5.456;2023-07-13T04:40:57;6.85;;;3.42;;
42110;SDS011;27766;52.174;5.456;2023-07-13T04:43:26;9.43;;;3.63;;
42110;SDS011;27766;52.174;5.456;2023-07-13T04:45:55;12.63;;;3.95;;
42110;SDS011;27766;52.174;5.456;2023-07-13T04:48:23;7.25;;;3.60;;
42110;SDS011;27766;52.174;5.456;2023-07-13T04:50:57;14.32;;;3.70;;
42110;SDS011;27766;52.174;5.456;2023-07-13T04:53:25;10.18;;;3.63;;
42110;SDS011;27766;52.174;5.456;2023-07-13T04:55:53;7.63;;;3.67;;
42110;SDS011;27766;52.174;5.456;2023-07-13T04:58:21;8.98;;;4.03;;
42110;SDS011;27766;52.174;5.456;2023-07-13T05:00:49;9.88;;;4.25;;
42110;SDS011;27766;52.174;5.456;2023-07-13T05:03:17;8.90;;;4.32;;
42110;SDS011;27766;52.174;5.456;2023-07-13T05:05:54;10.20;;;4.45;;
42110;SDS011;27766;52.174;5.456;2023-07-13T05:08:23;11.82;;;4.43;;
42110;SDS011;27766;52.174;5.456;2023-07-13T05:10:50;12.48;;;5.10;;
42110;SDS011;27766;52.174;5.456;2023-07-13T05:13:19;11.55;;;4.68;;
42110;SDS011;27766;52.174;5.456;2023-07-13T05:16:00;16.50;;;4.85;;
42110;SDS011;27766;52.174;5.456;2023-07-13T05:18:31;47.53;;;10.10;;
42110;SDS011;27766;52.174;5.456;2023-07-13T05:21:00;13.13;;;5.90;;
42110;SDS011;27766;52.174;5.456;2023-07-13T05:23:29;15.38;;;5.10;;
42110;SDS011;27766;52.174;5.456;2023-07-13T05:25:57;23.63;;;6.22;;
42110;SDS011;27766;52.174;5.456;2023-07-13T05:28:25;32.88;;;8.88;;
42110;SDS011;27766;52.174;5.456;2023-07-13T05:30:54;12.32;;;5.32;;
42110;SDS011;27766;52.174;5.456;2023-07-13T05:33:22;19.67;;;5.80;;
42110;SDS011;27766;52.174;5.456;2023-07-13T05:35:49;13.70;;;5.88;;
42110;SDS011;27766;52.174;5.456;2023-07-13T05:38:17;17.52;;;6.68;;
42110;SDS011;27766;52.174;5.456;2023-07-13T05:40:45;16.58;;;6.07;;
42110;SDS011;27766;52.174;5.456;2023-07-13T05:43:13;13.30;;;6.60;;
42110;SDS011;27766;52.174;5.456;2023-07-13T05:45:41;15.50;;;6.75;;
42110;SDS011;27766;52.174;5.456;2023-07-13T05:48:09;13.23;;;6.07;;
42110;SDS011;27766;52.174;5.456;2023-07-13T05:50:36;16.40;;;5.68;;
42110;SDS011;27766;52.174;5.456;2023-07-13T05:53:04;22.67;;;7.20;;
42110;SDS011;27766;52.174;5.456;2023-07-13T05:55:31;15.60;;;5.75;;
42110;SDS011;27766;52.174;5.456;2023-07-13T05:58:00;13.07;;;7.80;;
42110;SDS011;27766;52.174;5.456;2023-07-13T06:00:28;21.67;;;8.50;;
42110;SDS011;27766;52.174;5.456;2023-07-13T06:02:56;16.55;;;7.35;;
42110;SDS011;27766;52.174;5.456;2023-07-13T06:05:25;12.23;;;7.65;;
42110;SDS011;27766;52.174;5.456;2023-07-13T06:07:56;15.32;;;7.28;;
42110;SDS011;27766;52.174;5.456;2023-07-13T06:10:23;19.92;;;9.43;;
42110;SDS011;27766;52.174;5.456;2023-07-13T06:12:50;15.70;;;7.57;;
42110;SDS011;27766;52.174;5.456;2023-07-13T06:15:18;17.48;;;9.35;;
42110;SDS011;27766;52.174;5.456;2023-07-13T06:17:45;15.65;;;8.27;;
42110;SDS011;27766;52.174;5.456;2023-07-13T06:20:13;11.52;;;8.07;;
42110;SDS011;27766;52.174;5.456;2023-07-13T06:22:43;15.77;;;8.48;;
42110;SDS011;27766;52.174;5.456;2023-07-13T06:25:10;18.23;;;8.77;;
42110;SDS011;27766;52.174;5.456;2023-07-13T06:27:38;17.15;;;8.63;;
42110;SDS011;27766;52.174;5.456;2023-07-13T06:30:05;16.35;;;8.55;;
42110;SDS011;27766;52.174;5.456;2023-07-13T06:32:33;15.90;;;8.80;;
42110;SDS011;27766;52.174;5.456;2023-07-13T06:35:01;17.88;;;8.18;;
42110;SDS011;27766;52.174;5.456;2023-07-13T06:37:28;19.58;;;8.15;;
42110;SDS011;27766;52.174;5.456;2023-07-13T06:39:56;14.38;;;8.43;;
42110;SDS011;27766;52.174;5.456;2023-07-13T06:42:23;21.52;;;8.65;;
42110;SDS011;27766;52.174;5.456;2023-07-13T06:44:50;21.83;;;8.57;;
42110;SDS011;27766;52.174;5.456;2023-07-13T06:47:17;24.85;;;9.00;;
42110;SDS011;27766;52.174;5.456;2023-07-13T06:49:45;22.98;;;9.48;;
42110;SDS011;27766;52.174;5.456;2023-07-13T06:52:12;23.92;;;8.60;;
42110;SDS011;27766;52.174;5.456;2023-07-13T06:54:40;18.58;;;8.48;;
42110;SDS011;27766;52.174;5.456;2023-07-13T06:57:08;16.02;;;8.50;;
42110;SDS011;27766;52.174;5.456;2023-07-13T06:59:35;21.42;;;9.05;;
42110;SDS011;27766;52.174;5.456;2023-07-13T07:02:02;19.33;;;8.80;;
42110;SDS011;27766;52.174;5.456;2023-07-13T07:04:30;11.38;;;7.68;;
42110;SDS011;27766;52.174;5.456;2023-07-13T07:06:58;17.85;;;9.27;;
42110;SDS011;27766;52.174;5.456;2023-07-13T07:09:26;22.55;;;9.23;;
42110;SDS011;27766;52.174;5.456;2023-07-13T07:11:53;16.42;;;9.25;;
42110;SDS011;27766;52.174;5.456;2023-07-13T07:14:30;20.67;;;9.00;;
42110;SDS011;27766;52.174;5.456;2023-07-13T07:16:58;15.07;;;8.18;;
42110;SDS011;27766;52.174;5.456;2023-07-13T07:19:27;17.10;;;9.25;;
42110;SDS011;27766;52.174;5.456;2023-07-13T07:21:56;18.13;;;8.60;;
42110;SDS011;27766;52.174;5.456;2023-07-13T07:24:24;14.52;;;7.75;;
42110;SDS011;27766;52.174;5.456;2023-07-13T07:26:52;16.00;;;8.63;;
42110;SDS011;27766;52.174;5.456;2023-07-13T07:29:22;19.20;;;9.13;;
42110;SDS011;27766;52.174;5.456;2023-07-13T07:31:52;12.68;;;8.25;;
42110;SDS011;27766;52.174;5.456;2023-07-13T07:34:22;16.83;;;9.30;;
42110;SDS011;27766;52.174;5.456;2023-07-13T07:36:50;13.27;;;8.27;;
42110;SDS011;27766;52.174;5.456;2023-07-13T07:39:20;16.58;;;9.00;;
42110;SDS011;27766;52.174;5.456;2023-07-13T07:41:48;14.80;;;7.75;;
42110;SDS011;27766;52.174;5.456;2023-07-13T07:44:18;16.27;;;9.23;;
42110;SDS011;27766;52.174;5.456;2023-07-13T07:46:46;13.60;;;8.32;;
42110;SDS011;27766;52.174;5.456;2023-07-13T07:49:13;16.27;;;9.05;;
42110;SDS011;27766;52.174;5.456;2023-07-13T07:51:41;16.92;;;9.82;;
42110;SDS011;27766;52.174;5.456;2023-07-13T07:54:09;11.90;;;9.05;;
42110;SDS011;27766;52.174;5.456;2023-07-13T07:56:40;13.88;;;9.30;;
42110;SDS011;27766;52.174;5.456;2023-07-13T07:59:10;13.48;;;8.88;;
42110;SDS011;27766;52.174;5.456;2023-07-13T08:01:41;13.38;;;9.55;;
42110;SDS011;27766;52.174;5.456;2023-07-13T08:04:28;14.75;;;9.35;;
42110;SDS011;27766;52.174;5.456;2023-07-13T08:06:58;16.67;;;9.88;;
42110;SDS011;27766;52.174;5.456;2023-07-13T08:09:26;19.08;;;10.73;;
42110;SDS011;27766;52.174;5.456;2023-07-13T08:11:53;16.35;;;9.75;;
42110;SDS011;27766;52.174;5.456;2023-07-13T08:14:24;16.90;;;10.02;;
42110;SDS011;27766;52.174;5.456;2023-07-13T08:17:01;27.70;;;10.40;;
42110;SDS011;27766;52.174;5.456;2023-07-13T08:19:29;19.42;;;8.93;;
42110;SDS011;27766;52.174;5.456;2023-07-13T08:21:56;18.35;;;8.70;;
42110;SDS011;27766;52.174;5.456;2023-07-13T08:24:24;18.02;;;9.55;;
42110;SDS011;27766;52.174;5.456;2023-07-13T08:26:51;14.38;;;8.82;;
42110;SDS011;27766;52.174;5.456;2023-07-13T08:29:19;16.27;;;8.65;;
42110;SDS011;27766;52.174;5.456;2023-07-13T08:31:47;11.93;;;7.22;;
42110;SDS011;27766;52.174;5.456;2023-07-13T08:34:14;15.55;;;6.00;;
42110;SDS011;27766;52.174;5.456;2023-07-13T08:36:43;13.27;;;6.18;;
42110;SDS011;27766;52.174;5.456;2023-07-13T08:39:11;7.97;;;5.28;;
42110;SDS011;27766;52.174;5.456;2023-07-13T08:41:40;10.20;;;4.55;;
42110;SDS011;27766;52.174;5.456;2023-07-13T08:44:11;7.55;;;5.07;;
42110;SDS011;27766;52.174;5.456;2023-07-13T08:46:50;9.23;;;5.20;;
42110;SDS011;27766;52.174;5.456;2023-07-13T08:49:21;7.95;;;4.30;;
42110;SDS011;27766;52.174;5.456;2023-07-13T08:51:51;14.52;;;5.72;;
42110;SDS011;27766;52.174;5.456;2023-07-13T08:54:58;7.63;;;5.40;;
42110;SDS011;27766;52.174;5.456;2023-07-13T08:57:20;12.65;;;4.00;;
42110;SDS011;27766;52.174;5.456;2023-07-13T08:59:51;6.88;;;3.92;;
42110;SDS011;27766;52.174;5.456;2023-07-13T09:05:14;3.25;;;2.15;;
42110;SDS011;27766;52.174;5.456;2023-07-13T09:13:33;5.47;;;1.95;;
42110;SDS011;27766;52.174;5.456;2023-07-13T09:16:04;4.35;;;1.98;;
42110;SDS011;27766;52.174;5.456;2023-07-13T09:18:36;2.63;;;2.00;;
42110;SDS011;27766;52.174;5.456;2023-07-13T09:21:12;2.90;;;2.22;;
42110;SDS011;27766;52.174;5.456;2023-07-13T09:23:43;5.53;;;2.33;;
42110;SDS011;27766;52.174;5.456;2023-07-13T09:26:12;4.07;;;2.20;;
42110;SDS011;27766;52.174;5.456;2023-07-13T09:28:44;3.00;;;2.22;;
42110;SDS011;27766;52.174;5.456;2023-07-13T09:34:00;3.65;;;2.38;;
42110;SDS011;27766;52.174;5.456;2023-07-13T09:36:31;5.15;;;2.72;;
42110;SDS011;27766;52.174;5.456;2023-07-13T09:39:04;5.88;;;3.00;;
42110;SDS011;27766;52.174;5.456;2023-07-13T09:41:55;4.60;;;2.95;;
42110;SDS011;27766;52.174;5.456;2023-07-13T09:47:20;5.20;;;2.80;;
42110;SDS011;27766;52.174;5.456;2023-07-13T09:50:00;4.95;;;2.63;;
42110;SDS011;27766;52.174;5.456;2023-07-13T09:52:46;5.88;;;3.03;;
42110;SDS011;27766;52.174;5.456;2023-07-13T09:55:23;5.40;;;3.20;;
42110;SDS011;27766;52.174;5.456;2023-07-13T09:57:50;9.23;;;3.30;;
42110;SDS011;27766;52.174;5.456;2023-07-13T10:00:24;6.28;;;3.50;;
42110;SDS011;27766;52.174;5.456;2023-07-13T10:05:39;6.65;;;3.88;;
42110;SDS011;27766;52.174;5.456;2023-07-13T10:10:46;4.63;;;2.95;;
42110;SDS011;27766;52.174;5.456;2023-07-13T10:15:54;5.13;;;3.00;;
42110;SDS011;27766;52.174;5.456;2023-07-13T10:18:23;5.75;;;3.10;;
42110;SDS011;27766;52.174;5.456;2023-07-13T10:21:00;4.95;;;2.90;;
42110;SDS011;27766;52.174;5.456;2023-07-13T10:24:06;4.28;;;2.53;;
42110;SDS011;27766;52.174;5.456;2023-07-13T10:26:45;5.50;;;3.03;;
42110;SDS011;27766;52.174;5.456;2023-07-13T10:29:18;6.13;;;3.35;;
42110;SDS011;27766;52.174;5.456;2023-07-13T10:31:49;3.42;;;2.65;;
42110;SDS011;27766;52.174;5.456;2023-07-13T10:34:17;7.40;;;2.90;;
42110;SDS011;27766;52.174;5.456;2023-07-13T10:36:46;5.57;;;2.70;;
42110;SDS011;27766;52.174;5.456;2023-07-13T10:39:19;9.40;;;3.50;;
42110;SDS011;27766;52.174;5.456;2023-07-13T10:41:52;4.43;;;3.22;;
42110;SDS011;27766;52.174;5.456;2023-07-13T10:44:26;7.75;;;2.70;;
42110;SDS011;27766;52.174;5.456;2023-07-13T10:47:04;5.05;;;3.25;;
42110;SDS011;27766;52.174;5.456;2023-07-13T10:49:35;6.65;;;3.08;;
42110;SDS011;27766;52.174;5.456;2023-07-13T10:52:03;4.15;;;2.50;;
42110;SDS011;27766;52.174;5.456;2023-07-13T10:54:32;9.70;;;2.75;;
42110;SDS011;27766;52.174;5.456;2023-07-13T10:57:10;5.30;;;3.65;;
42110;SDS011;27766;52.174;5.456;2023-07-13T11:02:41;3.63;;;2.80;;
42110;SDS011;27766;52.174;5.456;2023-07-13T11:05:17;6.65;;;2.47;;
42110;SDS011;27766;52.174;5.456;2023-07-13T11:07:56;5.82;;;2.80;;
42110;SDS011;27766;52.174;5.456;2023-07-13T11:10:47;5.57;;;2.90;;
42110;SDS011;27766;52.174;5.456;2023-07-13T11:13:37;5.55;;;3.15;;
42110;SDS011;27766;52.174;5.456;2023-07-13T11:18:47;5.20;;;3.10;;
42110;SDS011;27766;52.174;5.456;2023-07-13T11:21:25;6.28;;;3.58;;
42110;SDS011;27766;52.174;5.456;2023-07-13T11:24:12;6.43;;;3.60;;
42110;SDS011;27766;52.174;5.456;2023-07-13T11:26:50;9.05;;;4.15;;
42110;SDS011;27766;52.174;5.456;2023-07-13T11:32:10;23.58;;;7.32;;
42110;SDS011;27766;52.174;5.456;2023-07-13T11:34:49;4.78;;;3.13;;
42110;SDS011;27766;52.174;5.456;2023-07-13T11:37:17;10.73;;;3.28;;
42110;SDS011;27766;52.174;5.456;2023-07-13T11:39:46;5.20;;;3.25;;
42110;SDS011;27766;52.174;5.456;2023-07-13T11:42:15;8.90;;;3.42;;
42110;SDS011;27766;52.174;5.456;2023-07-13T11:44:48;5.10;;;2.95;;
42110;SDS011;27766;52.174;5.456;2023-07-13T11:47:35;10.38;;;4.40;;
42110;SDS011;27766;52.174;5.456;2023-07-13T11:50:16;8.95;;;2.95;;
42110;SDS011;27766;52.174;5.456;2023-07-13T11:52:46;4.80;;;2.72;;
42110;SDS011;27766;52.174;5.456;2023-07-13T11:55:14;10.93;;;3.28;;
42110;SDS011;27766;52.174;5.456;2023-07-13T11:57:45;5.72;;;3.13;;
42110;SDS011;27766;52.174;5.456;2023-07-13T12:00:18;18.75;;;6.82;;
42110;SDS011;27766;52.174;5.456;2023-07-13T12:02:50;8.18;;;3.63;;
42110;SDS011;27766;52.174;5.456;2023-07-13T12:05:20;7.22;;;2.72;;
42110;SDS011;27766;52.174;5.456;2023-07-13T12:07:48;6.72;;;2.83;;
42110;SDS011;27766;52.174;5.456;2023-07-13T12:10:21;5.32;;;2.80;;
42110;SDS011;27766;52.174;5.456;2023-07-13T12:15:21;7.28;;;2.42;;
42110;SDS011;27766;52.174;5.456;2023-07-13T12:17:50;6.88;;;2.33;;
42110;SDS011;27766;52.174;5.456;2023-07-13T12:20:22;6.85;;;2.33;;
42110;SDS011;27766;52.174;5.456;2023-07-13T12:22:52;6.78;;;2.28;;
42110;SDS011;27766;52.174;5.456;2023-07-13T12:25:20;3.50;;;2.30;;
42110;SDS011;27766;52.174;5.456;2023-07-13T12:27:50;3.53;;;2.33;;
42110;SDS011;27766;52.174;5.456;2023-07-13T12:30:23;12.88;;;5.03;;
42110;SDS011;27766;52.174;5.456;2023-07-13T12:32:59;6.88;;;3.28;;
42110;SDS011;27766;52.174;5.456;2023-07-13T12:35:46;7.70;;;2.47;;
42110;SDS011;27766;52.174;5.456;2023-07-13T12:38:15;3.85;;;2.13;;
42110;SDS011;27766;52.174;5.456;2023-07-13T12:40:43;8.15;;;2.78;;
42110;SDS011;27766;52.174;5.456;2023-07-13T12:43:11;5.38;;;3.10;;
42110;SDS011;27766;52.174;5.456;2023-07-13T12:45:57;6.57;;;3.38;;
42110;SDS011;27766;52.174;5.456;2023-07-13T12:48:27;4.35;;;2.15;;
42110;SDS011;27766;52.174;5.456;2023-07-13T12:51:12;6.07;;;2.42;;
42110;SDS011;27766;52.174;5.456;2023-07-13T12:53:47;5.22;;;2.08;;
42110;SDS011;27766;52.174;5.456;2023-07-13T12:56:24;12.32;;;2.30;;
42110;SDS011;27766;52.174;5.456;2023-07-13T12:58:57;3.58;;;2.30;;
42110;SDS011;27766;52.174;5.456;2023-07-13T13:01:28;2.45;;;1.45;;
42110;SDS011;27766;52.174;5.456;2023-07-13T13:04:01;3.03;;;1.70;;
42110;SDS011;27766;52.174;5.456;2023-07-13T13:06:34;3.78;;;1.88;;
42110;SDS011;27766;52.174;5.456;2023-07-13T13:09:03;4.45;;;2.15;;
42110;SDS011;27766;52.174;5.456;2023-07-13T13:11:36;5.28;;;1.88;;
42110;SDS011;27766;52.174;5.456;2023-07-13T13:14:04;9.48;;;2.15;;
42110;SDS011;27766;52.174;5.456;2023-07-13T13:16:32;4.20;;;1.45;;
42110;SDS011;27766;52.174;5.456;2023-07-13T13:19:12;4.43;;;1.63;;
42110;SDS011;27766;52.174;5.456;2023-07-13T13:21:42;2.38;;;1.60;;
42110;SDS011;27766;52.174;5.456;2023-07-13T13:24:12;3.65;;;1.92;;
42110;SDS011;27766;52.174;5.456;2023-07-13T13:26:41;6.43;;;1.92;;
42110;SDS011;27766;52.174;5.456;2023-07-13T13:29:13;7.93;;;2.22;;
42110;SDS011;27766;52.174;5.456;2023-07-13T13:31:43;7.72;;;2.53;;
42110;SDS011;27766;52.174;5.456;2023-07-13T13:34:11;4.03;;;2.47;;
42110;SDS011;27766;52.174;5.456;2023-07-13T13:36:41;5.35;;;2.20;;
42110;SDS011;27766;52.174;5.456;2023-07-13T13:39:19;2.10;;;1.63;;
42110;SDS011;27766;52.174;5.456;2023-07-13T13:41:52;3.85;;;2.30;;
42110;SDS011;27766;52.174;5.456;2023-07-13T13:44:20;4.68;;;1.83;;
42110;SDS011;27766;52.174;5.456;2023-07-13T13:46:49;7.32;;;1.65;;
42110;SDS011;27766;52.174;5.456;2023-07-13T13:49:21;3.25;;;1.98;;
42110;SDS011;27766;52.174;5.456;2023-07-13T13:51:52;4.57;;;1.80;;
42110;SDS011;27766;52.174;5.456;2023-07-13T13:54:21;2.30;;;1.65;;
42110;SDS011;27766;52.174;5.456;2023-07-13T13:56:50;3.13;;;1.90;;
42110;SDS011;27766;52.174;5.456;2023-07-13T13:59:19;5.40;;;2.25;;
42110;SDS011;27766;52.174;5.456;2023-07-13T14:01:47;5.43;;;2.13;;
42110;SDS011;27766;52.174;5.456;2023-07-13T14:04:19;5.20;;;2.25;;
42110;SDS011;27766;52.174;5.456;2023-07-13T14:06:48;5.80;;;2.20;;
42110;SDS011;27766;52.174;5.456;2023-07-13T14:09:17;4.45;;;2.30;;
42110;SDS011;27766;52.174;5.456;2023-07-13T14:11:47;5.53;;;2.20;;
42110;SDS011;27766;52.174;5.456;2023-07-13T14:14:19;4.55;;;2.63;;
42110;SDS011;27766;52.174;5.456;2023-07-13T14:16:49;6.10;;;1.90;;
42110;SDS011;27766;52.174;5.456;2023-07-13T14:19:21;4.45;;;1.95;;
42110;SDS011;27766;52.174;5.456;2023-07-13T14:21:48;3.30;;;2.08;;
42110;SDS011;27766;52.174;5.456;2023-07-13T14:24:16;3.95;;;2.22;;
42110;SDS011;27766;52.174;5.456;2023-07-13T14:26:45;3.13;;;1.48;;
42110;SDS011;27766;52.174;5.456;2023-07-13T14:29:14;3.80;;;1.67;;
42110;SDS011;27766;52.174;5.456;2023-07-13T14:31:45;4.43;;;1.85;;
42110;SDS011;27766;52.174;5.456;2023-07-13T14:34:13;1.83;;;1.60;;
42110;SDS011;27766;52.174;5.456;2023-07-13T14:36:42;2.97;;;2.00;;
42110;SDS011;27766;52.174;5.456;2023-07-13T14:39:16;2.70;;;1.90;;
42110;SDS011;27766;52.174;5.456;2023-07-13T14:41:45;2.83;;;1.88;;
42110;SDS011;27766;52.174;5.456;2023-07-13T14:44:16;7.18;;;2.38;;
42110;SDS011;27766;52.174;5.456;2023-07-13T14:46:45;2.13;;;1.55;;
42110;SDS011;27766;52.174;5.456;2023-07-13T14:49:32;2.38;;;1.58;;
42110;SDS011;27766;52.174;5.456;2023-07-13T14:52:08;2.17;;;1.45;;
42110;SDS011;27766;52.174;5.456;2023-07-13T14:54:45;3.65;;;1.95;;
42110;SDS011;27766;52.174;5.456;2023-07-13T14:57:14;3.03;;;1.55;;
42110;SDS011;27766;52.174;5.456;2023-07-13T14:59:46;3.45;;;1.85;;
42110;SDS011;27766;52.174;5.456;2023-07-13T15:02:49;2.53;;;1.38;;
42110;SDS011;27766;52.174;5.456;2023-07-13T15:05:12;5.93;;;1.77;;
42110;SDS011;27766;52.174;5.456;2023-07-13T15:07:45;4.80;;;1.58;;
42110;SDS011;27766;52.174;5.456;2023-07-13T15:12:41;2.05;;;1.25;;
42110;SDS011;27766;52.174;5.456;2023-07-13T15:15:09;3.08;;;1.40;;
42110;SDS011;27766;52.174;5.456;2023-07-13T15:20:15;5.05;;;2.05;;
42110;SDS011;27766;52.174;5.456;2023-07-13T15:22:46;1.85;;;1.20;;
42110;SDS011;27766;52.174;5.456;2023-07-13T15:25:20;4.00;;;1.98;;
42110;SDS011;27766;52.174;5.456;2023-07-13T15:27:49;4.43;;;1.67;;
42110;SDS011;27766;52.174;5.456;2023-07-13T15:30:17;2.60;;;1.85;;
42110;SDS011;27766;52.174;5.456;2023-07-13T15:32:45;3.35;;;1.70;;
42110;SDS011;27766;52.174;5.456;2023-07-13T15:35:17;2.75;;;1.60;;
42110;SDS011;27766;52.174;5.456;2023-07-13T15:40:14;2.10;;;1.25;;
42110;SDS011;27766;52.174;5.456;2023-07-13T15:42:43;4.65;;;1.55;;
42110;SDS011;27766;52.174;5.456;2023-07-13T15:47:44;2.50;;;1.02;;
42110;SDS011;27766;52.174;5.456;2023-07-13T15:50:13;3.75;;;1.30;;
42110;SDS011;27766;52.174;5.456;2023-07-13T15:52:51;3.13;;;1.27;;